sensor_id;sensor_type;location;lat;lon;timestamp;pressure;altitude;pressure_sealevel;temperature;humidity
10646;BME280;5371;49.782;9.932;2023-02-11T00:01:21;101632.03;;;-0.19;100.00
10646;BME280;5371;49.782;9.932;2023-02-11T00:03:53;101620.13;;;-0.13;100.00
10646;BME280;5371;49.782;9.932;2023-02-11T00:06:20;101616.06;;;0.03;100.00
10646;BME280;5371;49.782;9.932;2023-02-11T00:08:49;101617.81;;;0.06;100.00
10646;BME280;5371;49.782;9.932;2023-02-11T00:11:17;101620.31;;;-0.01;100.00
10646;BME280;5371;49.782;9.932;2023-02-11T00:13:45;101618.53;;;-0.05;100.00
10646;BME280;5371;49.782;9.932;2023-02-11T00:16:15;101609.84;;;-0.13;100.00
10646;BME280;5371;49.782;9.932;2023-02-11T00:18:43;101609.28;;;0.07;100.00
10646;BME280;5371;49.782;9.932;2023-02-11T00:21:12;101612.97;;;-0.30;100.00
10646;BME280;5371;49.782;9.932;2023-02-11T00:23:39;101609.69;;;-0.22;100.00
10646;BME280;5371;49.782;9.932;2023-02-11T00:26:12;101612.59;;;0.01;100.00
10646;BME280;5371;49.782;9.932;2023-02-11T00:28:41;101612.66;;;0.04;100.00
10646;BME280;5371;49.782;9.932;2023-02-11T00:31:10;101611.44;;;-0.18;100.00
10646;BME280;5371;49.782;9.932;2023-02-11T00:33:37;101609.88;;;-0.11;100.00
10646;BME280;5371;49.782;9.932;2023-02-11T00:36:05;101610.09;;;0.06;100.00
10646;BME280;5371;49.782;9.932;2023-02-11T00:38:33;101613.63;;;0.12;100.00
10646;BME280;5371;49.782;9.932;2023-02-11T00:41:00;101613.81;;;0.24;100.00
10646;BME280;5371;49.782;9.932;2023-02-11T00:43:29;101612.13;;;0.26;100.00
10646;BME280;5371;49.782;9.932;2023-02-11T00:45:55;101606.94;;;0.23;100.00
10646;BME280;5371;49.782;9.932;2023-02-11T00:48:22;101604.47;;;0.32;100.00
10646;BME280;5371;49.782;9.932;2023-02-11T00:50:49;101613.97;;;0.35;100.00
10646;BME280;5371;49.782;9.932;2023-02-11T00:53:16;101613.94;;;0.33;100.00
10646;BME280;5371;49.782;9.932;2023-02-11T00:55:43;101619.06;;;0.33;100.00
10646;BME280;5371;49.782;9.932;2023-02-11T00:58:10;101620.75;;;0.31;100.00
10646;BME280;5371;49.782;9.932;2023-02-11T01:00:39;101626.78;;;0.33;100.00
10646;BME280;5371;49.782;9.932;2023-02-11T01:03:06;101624.25;;;0.38;100.00
10646;BME280;5371;49.782;9.932;2023-02-11T01:05:33;101626.53;;;0.15;100.00
10646;BME280;5371;49.782;9.932;2023-02-11T01:08:00;101624.84;;;0.17;100.00
10646;BME280;5371;49.782;9.932;2023-02-11T01:10:28;101614.97;;;0.48;100.00
10646;BME280;5371;49.782;9.932;2023-02-11T01:12:55;101611.59;;;0.52;100.00
10646;BME280;5371;49.782;9.932;2023-02-11T01:15:24;101612.56;;;0.60;100.00
10646;BME280;5371;49.782;9.932;2023-02-11T01:17:53;101610.88;;;0.62;100.00
10646;BME280;5371;49.782;9.932;2023-02-11T01:20:22;101609.94;;;0.57;100.00
10646;BME280;5371;49.782;9.932;2023-02-11T01:22:50;101592.72;;;0.51;100.00
10646;BME280;5371;49.782;9.932;2023-02-11T01:25:18;101585.59;;;0.30;100.00
10646;BME280;5371;49.782;9.932;2023-02-11T01:27:45;101571.22;;;0.48;100.00
10646;BME280;5371;49.782;9.932;2023-02-11T01:30:13;101565.22;;;0.49;100.00
10646;BME280;5371;49.782;9.932;2023-02-11T01:32:40;101566.03;;;0.43;100.00
10646;BME280;5371;49.782;9.932;2023-02-11T01:35:09;101556.50;;;0.34;100.00
10646;BME280;5371;49.782;9.932;2023-02-11T01:37:37;101544.38;;;0.27;100.00
10646;BME280;5371;49.782;9.932;2023-02-11T01:40:10;101548.84;;;0.41;100.00
10646;BME280;5371;49.782;9.932;2023-02-11T01:42:37;101557.44;;;0.43;100.00
10646;BME280;5371;49.782;9.932;2023-02-11T01:48:04;101541.00;;;0.31;100.00
10646;BME280;5371;49.782;9.932;2023-02-11T01:50:33;101535.06;;;0.35;100.00
10646;BME280;5371;49.782;9.932;2023-02-11T01:53:01;101533.28;;;0.31;100.00
10646;BME280;5371;49.782;9.932;2023-02-11T01:55:48;101527.53;;;0.51;100.00
10646;BME280;5371;49.782;9.932;2023-02-11T01:58:35;101523.06;;;0.37;100.00
10646;BME280;5371;49.782;9.932;2023-02-11T02:01:06;101531.47;;;0.23;100.00
10646;BME280;5371;49.782;9.932;2023-02-11T02:03:36;101519.91;;;-0.08;100.00
10646;BME280;5371;49.782;9.932;2023-02-11T02:06:11;101519.97;;;-0.05;100.00
10646;BME280;5371;49.782;9.932;2023-02-11T02:08:47;101515.78;;;0.00;100.00
10646;BME280;5371;49.782;9.932;2023-02-11T02:11:18;101509.84;;;0.07;100.00
10646;BME280;5371;49.782;9.932;2023-02-11T02:13:45;101510.69;;;0.06;100.00
10646;BME280;5371;49.782;9.932;2023-02-11T02:16:14;101509.66;;;-0.10;100.00
10646;BME280;5371;49.782;9.932;2023-02-11T02:18:48;101504.69;;;0.06;100.00
10646;BME280;5371;49.782;9.932;2023-02-11T02:21:48;101496.16;;;0.08;100.00
10646;BME280;5371;49.782;9.932;2023-02-11T02:24:48;101500.59;;;0.21;100.00
10646;BME280;5371;49.782;9.932;2023-02-11T02:27:33;101494.66;;;0.25;100.00
10646;BME280;5371;49.782;9.932;2023-02-11T02:33:13;101508.47;;;0.36;100.00
10646;BME280;5371;49.782;9.932;2023-02-11T02:35:46;101498.19;;;0.33;100.00
10646;BME280;5371;49.782;9.932;2023-02-11T02:38:19;101485.44;;;0.46;100.00
10646;BME280;5371;49.782;9.932;2023-02-11T02:40:49;101488.97;;;0.52;100.00
10646;BME280;5371;49.782;9.932;2023-02-11T02:43:18;101489.91;;;0.60;100.00
10646;BME280;5371;49.782;9.932;2023-02-11T02:45:46;101488.25;;;0.68;100.00
10646;BME280;5371;49.782;9.932;2023-02-11T02:48:32;101483.94;;;0.66;100.00
10646;BME280;5371;49.782;9.932;2023-02-11T02:51:10;101499.44;;;0.73;100.00
10646;BME280;5371;49.782;9.932;2023-02-11T02:53:50;101487.47;;;0.75;100.00
10646;BME280;5371;49.782;9.932;2023-02-11T02:56:24;101496.06;;;0.76;100.00
10646;BME280;5371;49.782;9.932;2023-02-11T02:59:06;101499.38;;;0.66;100.00
10646;BME280;5371;49.782;9.932;2023-02-11T03:01:42;101502.81;;;0.66;100.00
10646;BME280;5371;49.782;9.932;2023-02-11T03:04:21;101508.13;;;0.82;100.00
10646;BME280;5371;49.782;9.932;2023-02-11T03:06:54;101506.47;;;0.88;100.00
10646;BME280;5371;49.782;9.932;2023-02-11T03:09:27;101508.19;;;0.88;100.00
10646;BME280;5371;49.782;9.932;2023-02-11T03:11:56;101521.06;;;0.88;100.00
10646;BME280;5371;49.782;9.932;2023-02-11T03:14:25;101508.91;;;0.74;100.00
10646;BME280;5371;49.782;9.932;2023-02-11T03:16:54;101523.66;;;0.89;100.00
10646;BME280;5371;49.782;9.932;2023-02-11T03:19:28;101507.34;;;0.92;100.00
10646;BME280;5371;49.782;9.932;2023-02-11T03:21:56;101506.38;;;0.79;100.00
10646;BME280;5371;49.782;9.932;2023-02-11T03:24:27;101501.13;;;0.68;100.00
10646;BME280;5371;49.782;9.932;2023-02-11T03:26:58;101490.75;;;0.59;100.00
10646;BME280;5371;49.782;9.932;2023-02-11T03:29:32;101488.28;;;0.73;100.00
10646;BME280;5371;49.782;9.932;2023-02-11T03:32:05;101474.56;;;0.74;100.00
10646;BME280;5371;49.782;9.932;2023-02-11T03:34:41;101470.28;;;0.74;100.00
10646;BME280;5371;49.782;9.932;2023-02-11T03:37:13;101487.47;;;0.77;100.00
10646;BME280;5371;49.782;9.932;2023-02-11T03:39:46;101483.31;;;0.91;100.00
10646;BME280;5371;49.782;9.932;2023-02-11T03:42:17;101497.16;;;0.99;100.00
10646;BME280;5371;49.782;9.932;2023-02-11T03:44:48;101501.34;;;0.93;100.00
10646;BME280;5371;49.782;9.932;2023-02-11T03:47:20;101507.53;;;1.08;100.00
10646;BME280;5371;49.782;9.932;2023-02-11T03:49:52;101505.75;;;1.04;100.00
10646;BME280;5371;49.782;9.932;2023-02-11T03:52:21;101485.78;;;0.79;100.00
10646;BME280;5371;49.782;9.932;2023-02-11T03:54:52;101482.31;;;0.72;100.00
10646;BME280;5371;49.782;9.932;2023-02-11T03:57:21;101473.56;;;0.58;100.00
10646;BME280;5371;49.782;9.932;2023-02-11T03:59:49;101470.00;;;0.44;100.00
10646;BME280;5371;49.782;9.932;2023-02-11T04:02:16;101458.81;;;0.42;100.00
10646;BME280;5371;49.782;9.932;2023-02-11T04:04:44;101449.69;;;0.71;100.00
10646;BME280;5371;49.782;9.932;2023-02-11T04:07:13;101451.59;;;0.95;100.00
10646;BME280;5371;49.782;9.932;2023-02-11T04:09:40;101455.00;;;0.90;100.00
10646;BME280;5371;49.782;9.932;2023-02-11T04:12:07;101446.50;;;1.01;100.00
10646;BME280;5371;49.782;9.932;2023-02-11T04:14:34;101447.28;;;0.91;100.00
10646;BME280;5371;49.782;9.932;2023-02-11T04:17:01;101448.22;;;0.98;100.00
10646;BME280;5371;49.782;9.932;2023-02-11T04:19:28;101450.84;;;1.05;100.00
10646;BME280;5371;49.782;9.932;2023-02-11T04:21:55;101444.56;;;0.76;100.00
10646;BME280;5371;49.782;9.932;2023-02-11T04:24:24;101446.50;;;1.00;100.00
10646;BME280;5371;49.782;9.932;2023-02-11T04:26:51;101441.28;;;0.92;100.00
10646;BME280;5371;49.782;9.932;2023-02-11T04:29:18;101441.34;;;1.01;100.00
10646;BME280;5371;49.782;9.932;2023-02-11T04:31:45;101440.50;;;1.02;100.00
10646;BME280;5371;49.782;9.932;2023-02-11T04:34:12;101438.78;;;0.98;100.00
10646;BME280;5371;49.782;9.932;2023-02-11T04:36:39;101439.53;;;0.91;100.00
10646;BME280;5371;49.782;9.932;2023-02-11T04:39:07;101431.00;;;0.94;100.00
10646;BME280;5371;49.782;9.932;2023-02-11T04:41:35;101426.53;;;0.74;100.00
10646;BME280;5371;49.782;9.932;2023-02-11T04:44:03;101424.03;;;0.84;100.00
10646;BME280;5371;49.782;9.932;2023-02-11T04:46:30;101432.75;;;0.98;100.00
10646;BME280;5371;49.782;9.932;2023-02-11T04:48:57;101442.25;;;1.09;100.00
10646;BME280;5371;49.782;9.932;2023-02-11T04:51:24;101457.81;;;1.20;100.00
10646;BME280;5371;49.782;9.932;2023-02-11T04:53:51;101462.78;;;1.00;100.00
10646;BME280;5371;49.782;9.932;2023-02-11T04:56:18;101457.78;;;1.19;100.00
10646;BME280;5371;49.782;9.932;2023-02-11T04:58:46;101451.84;;;1.29;100.00
10646;BME280;5371;49.782;9.932;2023-02-11T05:01:15;101440.56;;;1.11;100.00
10646;BME280;5371;49.782;9.932;2023-02-11T05:03:42;101434.66;;;1.23;100.00
10646;BME280;5371;49.782;9.932;2023-02-11T05:06:09;101430.41;;;1.31;100.00
10646;BME280;5371;49.782;9.932;2023-02-11T05:08:37;101419.25;;;1.31;100.00
10646;BME280;5371;49.782;9.932;2023-02-11T05:11:04;101418.44;;;1.41;100.00
10646;BME280;5371;49.782;9.932;2023-02-11T05:13:31;101409.00;;;1.40;100.00
10646;BME280;5371;49.782;9.932;2023-02-11T05:15:59;101414.19;;;1.46;100.00
10646;BME280;5371;49.782;9.932;2023-02-11T05:18:29;101410.72;;;1.41;100.00
10646;BME280;5371;49.782;9.932;2023-02-11T05:21:21;101421.91;;;1.47;100.00
10646;BME280;5371;49.782;9.932;2023-02-11T05:24:45;101418.56;;;1.55;100.00
10646;BME280;5371;49.782;9.932;2023-02-11T05:27:12;101415.94;;;1.56;100.00
10646;BME280;5371;49.782;9.932;2023-02-11T05:29:39;101415.75;;;1.21;100.00
10646;BME280;5371;49.782;9.932;2023-02-11T05:32:08;101405.66;;;1.56;100.00
10646;BME280;5371;49.782;9.932;2023-02-11T05:34:35;101385.03;;;1.52;100.00
10646;BME280;5371;49.782;9.932;2023-02-11T05:37:02;101398.81;;;1.60;100.00
10646;BME280;5371;49.782;9.932;2023-02-11T05:39:29;101416.88;;;1.67;100.00
10646;BME280;5371;49.782;9.932;2023-02-11T05:41:56;101418.53;;;1.56;100.00
10646;BME280;5371;49.782;9.932;2023-02-11T05:44:23;101434.94;;;1.70;100.00
10646;BME280;5371;49.782;9.932;2023-02-11T05:46:49;101434.97;;;1.76;100.00
10646;BME280;5371;49.782;9.932;2023-02-11T05:49:18;101434.09;;;1.76;100.00
10646;BME280;5371;49.782;9.932;2023-02-11T05:51:45;101435.03;;;1.87;100.00
10646;BME280;5371;49.782;9.932;2023-02-11T05:54:12;101426.44;;;1.90;100.00
10646;BME280;5371;49.782;9.932;2023-02-11T05:56:39;101415.00;;;1.39;100.00
10646;BME280;5371;49.782;9.932;2023-02-11T05:59:06;101409.94;;;1.57;100.00
10646;BME280;5371;49.782;9.932;2023-02-11T06:01:33;101407.44;;;1.68;100.00
10646;BME280;5371;49.782;9.932;2023-02-11T06:04:00;101411.69;;;1.61;100.00
10646;BME280;5371;49.782;9.932;2023-02-11T06:06:28;101401.38;;;1.64;100.00
10646;BME280;5371;49.782;9.932;2023-02-11T06:08:55;101391.91;;;1.54;100.00
10646;BME280;5371;49.782;9.932;2023-02-11T06:11:22;101410.81;;;1.59;100.00
10646;BME280;5371;49.782;9.932;2023-02-11T06:13:49;101413.38;;;1.53;100.00
10646;BME280;5371;49.782;9.932;2023-02-11T06:16:17;101411.66;;;1.55;100.00
10646;BME280;5371;49.782;9.932;2023-02-11T06:18:44;101408.94;;;1.32;100.00
10646;BME280;5371;49.782;9.932;2023-02-11T06:21:11;101401.28;;;1.43;100.00
10646;BME280;5371;49.782;9.932;2023-02-11T06:23:39;101414.19;;;1.43;100.00
10646;BME280;5371;49.782;9.932;2023-02-11T06:26:18;101407.31;;;1.45;100.00
10646;BME280;5371;49.782;9.932;2023-02-11T06:28:45;101401.25;;;1.40;100.00
10646;BME280;5371;49.782;9.932;2023-02-11T06:31:12;101402.19;;;1.45;100.00
10646;BME280;5371;49.782;9.932;2023-02-11T06:37:46;101414.06;;;1.28;100.00
10646;BME280;5371;49.782;9.932;2023-02-11T06:40:16;101412.38;;;1.30;100.00
10646;BME280;5371;49.782;9.932;2023-02-11T06:42:43;101420.94;;;1.24;100.00
10646;BME280;5371;49.782;9.932;2023-02-11T06:45:10;101423.59;;;1.35;100.00
10646;BME280;5371;49.782;9.932;2023-02-11T06:47:38;101414.97;;;1.37;100.00
10646;BME280;5371;49.782;9.932;2023-02-11T06:50:07;101416.56;;;1.19;100.00
10646;BME280;5371;49.782;9.932;2023-02-11T06:52:34;101411.44;;;1.16;100.00
10646;BME280;5371;49.782;9.932;2023-02-11T06:55:01;101416.75;;;1.46;100.00
10646;BME280;5371;49.782;9.932;2023-02-11T06:57:30;101415.09;;;1.56;100.00
10646;BME280;5371;49.782;9.932;2023-02-11T06:59:57;101427.13;;;1.58;100.00
10646;BME280;5371;49.782;9.932;2023-02-11T07:02:24;101422.88;;;1.63;100.00
10646;BME280;5371;49.782;9.932;2023-02-11T07:04:50;101427.13;;;1.58;100.00
10646;BME280;5371;49.782;9.932;2023-02-11T07:07:17;101417.63;;;1.46;100.00
10646;BME280;5371;49.782;9.932;2023-02-11T07:09:44;101421.06;;;1.47;100.00
10646;BME280;5371;49.782;9.932;2023-02-11T07:12:11;101415.09;;;1.54;100.00
10646;BME280;5371;49.782;9.932;2023-02-11T07:14:40;101417.72;;;1.62;100.00
10646;BME280;5371;49.782;9.932;2023-02-11T07:17:07;101411.75;;;1.73;100.00
10646;BME280;5371;49.782;9.932;2023-02-11T07:19:34;101409.81;;;1.37;100.00
10646;BME280;5371;49.782;9.932;2023-02-11T07:22:01;101409.94;;;1.54;100.00
10646;BME280;5371;49.782;9.932;2023-02-11T07:24:27;101408.38;;;1.93;100.00
10646;BME280;5371;49.782;9.932;2023-02-11T07:26:54;101417.06;;;2.20;100.00
10646;BME280;5371;49.782;9.932;2023-02-11T07:29:21;101416.28;;;2.41;100.00
10646;BME280;5371;49.782;9.932;2023-02-11T07:31:50;101415.31;;;2.06;100.00
10646;BME280;5371;49.782;9.932;2023-02-11T07:34:17;101406.81;;;2.34;100.00
10646;BME280;5371;49.782;9.932;2023-02-11T07:36:43;101412.84;;;2.48;100.00
10646;BME280;5371;49.782;9.932;2023-02-11T07:39:10;101416.19;;;2.06;100.00
10646;BME280;5371;49.782;9.932;2023-02-11T07:41:38;101416.22;;;2.17;100.00
10646;BME280;5371;49.782;9.932;2023-02-11T07:44:05;101422.25;;;2.22;100.00
10646;BME280;5371;49.782;9.932;2023-02-11T07:46:32;101431.78;;;2.64;100.00
10646;BME280;5371;49.782;9.932;2023-02-11T07:49:01;101425.75;;;2.57;100.00
10646;BME280;5371;49.782;9.932;2023-02-11T07:51:29;101417.16;;;2.43;100.00
10646;BME280;5371;49.782;9.932;2023-02-11T07:53:58;101421.44;;;2.43;100.00
10646;BME280;5371;49.782;9.932;2023-02-11T07:56:26;101426.63;;;2.58;100.00
10646;BME280;5371;49.782;9.932;2023-02-11T07:58:53;101420.63;;;2.85;100.00
10646;BME280;5371;49.782;9.932;2023-02-11T08:01:23;101436.13;;;2.79;100.00
10646;BME280;5371;49.782;9.932;2023-02-11T08:03:53;101439.53;;;3.32;100.00
10646;BME280;5371;49.782;9.932;2023-02-11T08:06:23;101432.66;;;3.30;100.00
10646;BME280;5371;49.782;9.932;2023-02-11T08:08:51;101428.34;;;3.24;100.00
10646;BME280;5371;49.782;9.932;2023-02-11T08:11:20;101435.28;;;2.99;100.00
10646;BME280;5371;49.782;9.932;2023-02-11T08:13:47;101441.22;;;3.52;100.00
10646;BME280;5371;49.782;9.932;2023-02-11T08:16:18;101430.66;;;4.19;100.00
10646;BME280;5371;49.782;9.932;2023-02-11T08:18:45;101436.13;;;3.18;100.00
10646;BME280;5371;49.782;9.932;2023-02-11T08:21:12;101445.56;;;3.41;100.00
10646;BME280;5371;49.782;9.932;2023-02-11T08:23:42;101450.63;;;3.75;100.00
10646;BME280;5371;49.782;9.932;2023-02-11T08:26:12;101453.88;;;4.34;100.00
10646;BME280;5371;49.782;9.932;2023-02-11T08:28:41;101453.84;;;4.35;100.00
10646;BME280;5371;49.782;9.932;2023-02-11T08:31:10;101452.03;;;4.53;100.00
10646;BME280;5371;49.782;9.932;2023-02-11T08:33:38;101436.50;;;4.46;100.00
10646;BME280;5371;49.782;9.932;2023-02-11T08:36:07;101445.53;;;3.50;100.00
10646;BME280;5371;49.782;9.932;2023-02-11T08:38:35;101451.31;;;4.22;100.00
10646;BME280;5371;49.782;9.932;2023-02-11T08:41:03;101449.19;;;4.86;100.00
10646;BME280;5371;49.782;9.932;2023-02-11T08:43:31;101447.41;;;4.93;100.00
10646;BME280;5371;49.782;9.932;2023-02-11T08:45:58;101443.09;;;4.95;100.00
10646;BME280;5371;49.782;9.932;2023-02-11T08:48:25;101450.63;;;5.22;100.00
10646;BME280;5371;49.782;9.932;2023-02-11T08:50:53;101462.53;;;5.44;100.00
10646;BME280;5371;49.782;9.932;2023-02-11T08:53:20;101467.53;;;5.62;100.00
10646;BME280;5371;49.782;9.932;2023-02-11T08:55:48;101465.56;;;5.83;100.00
10646;BME280;5371;49.782;9.932;2023-02-11T08:58:17;101476.03;;;5.75;100.00
10646;BME280;5371;49.782;9.932;2023-02-11T09:00:44;101478.41;;;5.99;100.00
10646;BME280;5371;49.782;9.932;2023-02-11T09:03:12;101468.72;;;5.28;100.00
10646;BME280;5371;49.782;9.932;2023-02-11T09:05:40;101466.53;;;4.79;100.00
10646;BME280;5371;49.782;9.932;2023-02-11T09:08:07;101463.00;;;4.86;100.00
10646;BME280;5371;49.782;9.932;2023-02-11T09:10:35;101471.28;;;5.31;100.00
10646;BME280;5371;49.782;9.932;2023-02-11T09:13:02;101476.47;;;3.88;100.00
10646;BME280;5371;49.782;9.932;2023-02-11T09:15:31;101478.19;;;3.93;100.00
10646;BME280;5371;49.782;9.932;2023-02-11T09:17:58;101478.97;;;4.10;100.00
10646;BME280;5371;49.782;9.932;2023-02-11T09:20:26;101467.41;;;4.74;100.00
10646;BME280;5371;49.782;9.932;2023-02-11T09:22:53;101472.88;;;4.27;100.00
10646;BME280;5371;49.782;9.932;2023-02-11T09:25:20;101470.22;;;4.45;100.00
10646;BME280;5371;49.782;9.932;2023-02-11T09:27:47;101468.72;;;3.83;100.00
10646;BME280;5371;49.782;9.932;2023-02-11T09:30:14;101467.88;;;3.76;100.00
10646;BME280;5371;49.782;9.932;2023-02-11T09:32:42;101473.78;;;4.17;100.00
10646;BME280;5371;49.782;9.932;2023-02-11T09:35:09;101460.81;;;4.21;100.00
10646;BME280;5371;49.782;9.932;2023-02-11T09:37:36;101460.72;;;4.39;100.00
10646;BME280;5371;49.782;9.932;2023-02-11T09:40:04;101459.09;;;4.25;100.00
10646;BME280;5371;49.782;9.932;2023-02-11T09:46:53;101457.34;;;4.22;100.00
10646;BME280;5371;49.782;9.932;2023-02-11T09:49:28;101461.00;;;3.69;100.00
10646;BME280;5371;49.782;9.932;2023-02-11T09:52:00;101454.81;;;4.14;100.00
10646;BME280;5371;49.782;9.932;2023-02-11T09:54:35;101459.56;;;4.84;100.00
10646;BME280;5371;49.782;9.932;2023-02-11T09:57:03;101454.31;;;4.97;100.00
10646;BME280;5371;49.782;9.932;2023-02-11T09:59:31;101453.56;;;4.81;100.00
10646;BME280;5371;49.782;9.932;2023-02-11T10:02:01;101453.59;;;4.76;100.00
10646;BME280;5371;49.782;9.932;2023-02-11T10:04:48;101439.09;;;4.51;100.00
10646;BME280;5371;49.782;9.932;2023-02-11T10:07:30;101447.00;;;4.25;100.00
10646;BME280;5371;49.782;9.932;2023-02-11T10:10:09;101440.81;;;4.52;100.00
10646;BME280;5371;49.782;9.932;2023-02-11T10:12:58;101448.63;;;4.41;100.00
10646;BME280;5371;49.782;9.932;2023-02-11T10:15:36;101453.91;;;4.20;100.00
10646;BME280;5371;49.782;9.932;2023-02-11T10:18:33;101465.56;;;4.93;100.00
10646;BME280;5371;49.782;9.932;2023-02-11T10:21:14;101476.47;;;5.34;100.00
10646;BME280;5371;49.782;9.932;2023-02-11T10:23:48;101476.00;;;5.80;100.00
10646;BME280;5371;49.782;9.932;2023-02-11T10:26:18;101470.06;;;6.44;100.00
10646;BME280;5371;49.782;9.932;2023-02-11T10:28:47;101481.91;;;5.97;100.00
10646;BME280;5371;49.782;9.932;2023-02-11T10:31:16;101487.00;;;6.03;100.00
10646;BME280;5371;49.782;9.932;2023-02-11T10:33:46;101483.94;;;7.01;100.00
10646;BME280;5371;49.782;9.932;2023-02-11T10:36:17;101483.97;;;6.99;100.00
10646;BME280;5371;49.782;9.932;2023-02-11T10:38:45;101491.47;;;6.61;100.00
10646;BME280;5371;49.782;9.932;2023-02-11T10:41:15;101476.59;;;6.72;100.00
10646;BME280;5371;49.782;9.932;2023-02-11T10:43:43;101477.44;;;6.10;100.00
10646;BME280;5371;49.782;9.932;2023-02-11T10:46:15;101476.97;;;5.68;100.00
10646;BME280;5371;49.782;9.932;2023-02-11T10:48:44;101483.94;;;6.41;100.00
10646;BME280;5371;49.782;9.932;2023-02-11T10:51:20;101479.31;;;5.97;100.00
10646;BME280;5371;49.782;9.932;2023-02-11T10:53:49;101474.78;;;6.11;100.00
10646;BME280;5371;49.782;9.932;2023-02-11T10:56:22;101482.09;;;5.74;100.00
10646;BME280;5371;49.782;9.932;2023-02-11T10:58:57;101476.59;;;6.08;100.00
10646;BME280;5371;49.782;9.932;2023-02-11T11:01:38;101472.25;;;6.08;100.00
10646;BME280;5371;49.782;9.932;2023-02-11T11:04:26;101476.97;;;6.46;100.00
10646;BME280;5371;49.782;9.932;2023-02-11T11:07:12;101475.38;;;6.93;100.00
10646;BME280;5371;49.782;9.932;2023-02-11T11:10:24;101477.09;;;6.95;100.00
10646;BME280;5371;49.782;9.932;2023-02-11T11:12:52;101477.53;;;6.65;100.00
10646;BME280;5371;49.782;9.932;2023-02-11T11:15:20;101476.59;;;6.72;100.00
10646;BME280;5371;49.782;9.932;2023-02-11T11:17:48;101484.66;;;6.52;100.00
10646;BME280;5371;49.782;9.932;2023-02-11T11:20:22;101478.38;;;6.01;100.00
10646;BME280;5371;49.782;9.932;2023-02-11T11:22:53;101476.28;;;6.29;100.00
10646;BME280;5371;49.782;9.932;2023-02-11T11:25:35;101474.50;;;6.35;100.00
10646;BME280;5371;49.782;9.932;2023-02-11T11:28:03;101471.25;;;6.18;100.00
10646;BME280;5371;49.782;9.932;2023-02-11T11:30:33;101470.34;;;6.19;100.00
10646;BME280;5371;49.782;9.932;2023-02-11T11:33:17;101470.81;;;6.50;100.00
10646;BME280;5371;49.782;9.932;2023-02-11T11:35:56;101472.41;;;6.62;100.00
10646;BME280;5371;49.782;9.932;2023-02-11T11:38:26;101473.41;;;6.52;100.00
10646;BME280;5371;49.782;9.932;2023-02-11T11:41:13;101470.91;;;6.44;100.00
10646;BME280;5371;49.782;9.932;2023-02-11T11:43:56;101471.31;;;6.75;100.00
10646;BME280;5371;49.782;9.932;2023-02-11T11:46:28;101465.84;;;6.93;100.00
10646;BME280;5371;49.782;9.932;2023-02-11T11:49:03;101459.34;;;6.65;100.00
10646;BME280;5371;49.782;9.932;2023-02-11T11:51:34;101460.94;;;6.11;100.00
10646;BME280;5371;49.782;9.932;2023-02-11T11:54:07;101461.22;;;5.89;100.00
10646;BME280;5371;49.782;9.932;2023-02-11T11:56:40;101449.69;;;6.10;100.00
10646;BME280;5371;49.782;9.932;2023-02-11T11:59:12;101453.00;;;6.26;100.00
10646;BME280;5371;49.782;9.932;2023-02-11T12:01:49;101444.94;;;6.46;100.00
10646;BME280;5371;49.782;9.932;2023-02-11T12:04:34;101461.75;;;6.80;100.00
10646;BME280;5371;49.782;9.932;2023-02-11T12:07:13;101459.44;;;5.93;100.00
10646;BME280;5371;49.782;9.932;2023-02-11T12:09:55;101456.94;;;6.54;100.00
10646;BME280;5371;49.782;9.932;2023-02-11T12:12:38;101450.16;;;6.43;100.00
10646;BME280;5371;49.782;9.932;2023-02-11T12:15:19;101450.78;;;5.94;100.00
10646;BME280;5371;49.782;9.932;2023-02-11T12:18:12;101458.22;;;6.21;100.00
10646;BME280;5371;49.782;9.932;2023-02-11T12:20:54;101456.81;;;5.96;100.00
10646;BME280;5371;49.782;9.932;2023-02-11T12:23:43;101458.22;;;6.20;100.00
10646;BME280;5371;49.782;9.932;2023-02-11T12:26:17;101450.88;;;6.54;100.00
10646;BME280;5371;49.782;9.932;2023-02-11T12:29:08;101451.69;;;6.56;100.00
10646;BME280;5371;49.782;9.932;2023-02-11T12:31:51;101442.84;;;6.67;100.00
10646;BME280;5371;49.782;9.932;2023-02-11T12:34:35;101446.34;;;6.65;100.00
10646;BME280;5371;49.782;9.932;2023-02-11T12:37:15;101435.38;;;7.03;100.00
10646;BME280;5371;49.782;9.932;2023-02-11T12:39:49;101433.53;;;7.09;100.00
10646;BME280;5371;49.782;9.932;2023-02-11T12:42:33;101446.22;;;7.28;100.00
10646;BME280;5371;49.782;9.932;2023-02-11T12:45:30;101443.50;;;7.35;100.00
10646;BME280;5371;49.782;9.932;2023-02-11T12:48:14;101443.28;;;6.95;100.00
10646;BME280;5371;49.782;9.932;2023-02-11T12:50:53;101442.72;;;7.29;100.00
10646;BME280;5371;49.782;9.932;2023-02-11T12:53:33;101447.19;;;6.67;100.00
10646;BME280;5371;49.782;9.932;2023-02-11T12:56:08;101445.41;;;6.72;100.00
10646;BME280;5371;49.782;9.932;2023-02-11T12:58:41;101437.66;;;6.67;100.00
10646;BME280;5371;49.782;9.932;2023-02-11T13:01:17;101442.09;;;5.96;100.00
10646;BME280;5371;49.782;9.932;2023-02-11T13:03:47;101424.16;;;6.46;100.00
10646;BME280;5371;49.782;9.932;2023-02-11T13:06:19;101428.25;;;6.59;100.00
10646;BME280;5371;49.782;9.932;2023-02-11T13:08:50;101408.78;;;6.87;100.00
10646;BME280;5371;49.782;9.932;2023-02-11T13:11:22;101404.75;;;6.66;100.00
10646;BME280;5371;49.782;9.932;2023-02-11T13:13:55;101408.16;;;6.10;100.00
10646;BME280;5371;49.782;9.932;2023-02-11T13:16:32;101408.59;;;6.43;100.00
10646;BME280;5371;49.782;9.932;2023-02-11T13:19:05;101406.22;;;6.27;100.00
10646;BME280;5371;49.782;9.932;2023-02-11T13:21:46;101411.03;;;6.55;100.00
10646;BME280;5371;49.782;9.932;2023-02-11T13:24:22;101408.16;;;6.71;100.00
10646;BME280;5371;49.782;9.932;2023-02-11T13:26:57;101410.69;;;6.74;100.00
10646;BME280;5371;49.782;9.932;2023-02-11T13:29:34;101403.72;;;6.78;100.00
10646;BME280;5371;49.782;9.932;2023-02-11T13:32:07;101392.19;;;6.37;100.00
10646;BME280;5371;49.782;9.932;2023-02-11T13:34:55;101390.38;;;6.46;100.00
10646;BME280;5371;49.782;9.932;2023-02-11T13:37:28;101385.38;;;6.30;100.00